Read Island, Canada
Current Conditions -  °F | °C
As of 9:00 PM on Thursday 27 Nov 2014 (Local Time) from CYBL Reporting Station
Light Rain Light Rain  
Wind Chill: 37°   Ceiling: 900
Heat Index: 43°   Visibility: 10mi
Dew Point: 41°   Wind: 10mph
Humidity: 93%   Direction: 300°WNW
Pressure: 29.5"   Gusts: NA
Location:  50.18°N, 125.09°W
Report Text: CYBL 280500Z 30009KT 10SM -RA BKN009 OVC023 06/05 A2950 RMK ST5SC3 LAST OBS/NEXT 281400UTC SLP991
Loading
Personal Weather Stations






























Interactive Weather Map New forecast layout! Learn more

10-Day Weather Forecast

Advertisements
Track Severe Weather on mobile